Latest Coastal Weather Observations for Port Fairy

IDV60701

Issued at 8:21 am EST Tuesday 27 September 2016 (issued every 10 minutes, with the page automatically refreshed every 10 minutes)

About coastal observations | Map of coastal stations | Coastal observations for VIC | Marine services | Other Formats
Station Details ID: 090175 Name: PORT FAIRY AWS Lat: -38.39 Lon: 142.23 Height: 10.0 m
Data from the previous 72 hours. | See also: Recent months at Port Fairy
Date/Time
EST
Temp
°C
Wind Pressure Rain since
9am
mm
Weather Cloud Vis
km
Sea
Height
m
Swell
Dir  Spd
kts
Gust
kts
hPa Trend Height
m
Period
s
Dir
27/08:00am 11.3 WSW 16 22 1011.1 - 5.2 - - - - - - -
27/07:30am 11.1 WSW 19 25 1010.7 - 5.2 - - - - - - -
27/07:00am 10.3 WSW 20 26 1010.3 - 5.2 - - - - - - -
27/06:30am 9.8 WSW 23 31 1010.0 - 5.2 - - - - - - -
27/06:00am 10.5 WSW 21 28 1009.4 - 4.4 Rain - - - - - -
27/05:39am 10.4 W 16 26 1009.0 - 4.2 - - - - - - -
27/05:30am 9.5 WNW 6 17 1009.0 - 4.2 - - - - - - -
27/05:00am 7.5 NNW 7 10 1008.8 - 4.0 - - - - - - -
27/04:30am 6.9 NNW 7 10 1008.7 - 4.0 - - - - - - -
27/04:00am 6.1 NNW 7 9 1008.7 - 4.0 - - - - - - -
27/03:30am 5.6 NNW 6 9 1008.6 - 4.0 - - - - - - -
27/03:00am 6.1 NNW 7 11 1008.5 - 4.0 - - - - - - -
27/02:30am 6.1 NNW 7 10 1008.6 - 4.0 - - - - - - -
27/02:00am 5.7 NNW 7 10 1008.7 - 4.0 - - - - - - -
27/01:30am 5.8 NNW 7 11 1009.0 - 4.0 - - - - - - -
27/01:00am 6.0 NNW 7 11 1009.1 - 4.0 - - - - - - -
27/12:30am 6.4 NNW 8 11 1009.2 - 4.0 - - - - - - -
27/12:00am 6.5 NNW 8 13 1009.3 - 4.0 - - - - - - -
 
Date/Time
EST
Temp
°C
Wind Pressure Rain since
9am
mm
Weather Cloud Vis
km
Sea
Height
m
Swell
Dir  Spd
kts
Gust
kts
hPa Trend Height
m
Period
s
Dir
26/11:30pm 6.3 NNW 8 11 1009.5 - 4.0 - - - - - - -
26/11:00pm 6.5 NNW 9 12 1009.5 - 4.0 - - - - - - -
26/10:30pm 6.8 NNW 7 11 1009.5 - 4.0 - - - - - - -
26/10:00pm 6.9 NNW 7 11 1009.6 - 4.0 - - - - - - -
26/09:30pm 7.1 NNW 7 12 1009.5 - 4.0 - - - - - - -
26/09:00pm 7.0 NNW 6 9 1009.3 - 4.0 - - - - - - -
26/08:30pm 7.8 NW 5 9 1009.0 - 4.0 - - - - - - -
26/08:00pm 8.3 NW 6 10 1008.7 - 4.0 - - - - - - -
26/07:30pm 8.3 N 6 9 1008.6 - 4.0 - - - - - - -
26/07:00pm 8.5 NNW 5 9 1008.5 - 4.0 - - - - - - -
26/06:30pm 8.7 NNW 6 10 1008.3 - 4.0 - - - - - - -
26/06:00pm 9.4 NNW 7 12 1008.1 - 4.0 - - - - - - -
26/05:30pm 8.9 NNW 7 13 1008.1 - 4.0 - - - - - - -
26/05:00pm 7.7 NNW 6 10 1007.9 - 4.0 - - - - - - -
26/04:30pm 7.4 NNW 9 15 1008.3 - 3.8 - - - - - - -
26/04:00pm 8.1 WNW 16 29 1008.8 - 1.8 - - - - - - -
26/03:43pm 10.1 WNW 10 30 1008.5 - 0.6 - - - - - - -
26/03:30pm 10.8 NNW 7 16 1007.6 - 0.4 - - - - - - -
26/03:00pm 14.1 NNW 10 22 1007.1 - 0.0 - - - - - - -
26/02:30pm 15.6 NNW 10 19 1007.1 - 0.0 - - - - - - -
26/02:00pm 16.5 NNW 11 17 1007.3 - 0.0 - - - - - - -
26/01:30pm 16.8 NNW 10 15 1007.8 - 0.0 - - - - - - -
26/01:00pm 15.4 NNW 11 17 1008.4 - 0.0 - - - - - - -
26/12:30pm 15.8 NNW 13 19 1008.9 - 0.0 - - - - - - -
26/12:00pm 17.3 NNW 12 19 1009.3 - 0.0 - - - - - - -
26/11:30am 15.5 N 11 19 1009.8 - 0.0 - - - - - - -
26/11:00am 15.8 NNW 12 19 1010.3 - 0.0 - - - - - - -
26/10:30am 14.4 NNW 10 16 1010.6 - 0.0 - - - - - - -
26/10:00am 14.0 NNW 11 18 1011.0 - 0.0 - - - - - - -
26/09:30am 13.2 N 9 12 1011.0 - 0.0 - - - - - - -
26/09:00am 11.8 N 8 13 1011.1 - 0.0 - - - - - - -
26/08:30am 10.9 NNW 7 11 1011.3 - 0.0 - - - - - - -
26/08:00am 8.9 N 6 9 1011.4 - 0.0 - - - - - - -
26/07:30am 7.9 N 6 9 1011.5 - 0.0 - - - - - - -
26/07:00am 6.0 N 6 9 1011.6 - 0.0 - - - - - - -
26/06:30am 5.5 N 6 8 1011.7 - 0.0 - - - - - - -
26/06:00am 5.7 NNE 6 8 1011.7 - 0.0 - - - - - - -
26/05:30am 5.9 N 6 8 1011.6 - 0.0 - - - - - - -
26/05:00am 5.6 N 5 8 1011.6 - 0.0 - - - - - - -
26/04:30am 5.9 N 5 7 1011.6 - 0.0 - - - - - - -
26/04:00am 6.2 N 5 7 1011.6 - 0.0 - - - - - - -
26/03:30am 6.6 N 4 6 1011.7 - 0.0 - - - - - - -
26/03:00am 7.0 N 6 8 1012.0 - 0.0 - - - - - - -
26/02:30am 7.4 N 5 7 1012.3 - 0.0 - - - - - - -
26/02:00am 7.5 N 5 7 1012.7 - 0.0 - - - - - - -
26/01:30am 7.9 N 5 7 1012.9 - 0.0 - - - - - - -
26/01:00am 8.0 N 5 7 1013.2 - 0.0 - - - - - - -
26/12:30am 8.0 N 5 7 1013.4 - 0.0 - - - - - - -
26/12:00am 8.0 NNE 4 7 1013.3 - 0.0 - - - - - - -
 
Date/Time
EST
Temp
°C
Wind Pressure Rain since
9am
mm
Weather Cloud Vis
km
Sea
Height
m
Swell
Dir  Spd
kts
Gust
kts
hPa Trend Height
m
Period
s
Dir
25/11:30pm 8.4 N 4 6 1013.5 - 0.0 - - - - - - -
25/11:00pm 8.9 NNE 5 6 1013.5 - 0.0 - - - - - - -
25/10:30pm 9.2 N 5 7 1013.7 - 0.0 - - - - - - -
25/10:00pm 9.3 N 4 5 1013.8 - 0.0 - - - - - - -
25/09:30pm 9.3 N 4 6 1013.9 - 0.0 - - - - - - -
25/09:00pm 9.4 NE 3 4 1014.0 - 0.0 - - - - - - -
25/08:30pm 8.9 NE 1 3 1013.9 - 0.0 - - - - - - -
25/08:00pm 9.2 ENE 2 3 1013.6 - 0.0 - - - - - - -
25/07:30pm 9.8 WNW 2 3 1013.3 - 0.0 - - - - - - -
25/07:00pm 9.9 WNW 3 5 1013.0 - 0.0 - - - - - - -
25/06:30pm 10.7 W 6 10 1013.0 - 0.0 - - - - - - -
25/06:00pm 11.5 WSW 8 11 1012.5 - 0.0 - - - - - - -
25/05:30pm 12.3 WSW 8 11 1012.4 - 0.0 - - - - - - -
25/05:00pm 12.2 WSW 9 13 1012.0 - 0.0 - - - - - - -
25/04:30pm 12.9 WSW 9 12 1011.9 - 0.0 - - - - - - -
25/04:00pm 12.5 WSW 9 12 1011.7 - 0.0 - - - - - - -
25/03:30pm 13.0 WSW 11 15 1012.0 - 0.0 - - - - - - -
25/03:00pm 14.0 WSW 12 15 1012.0 - 0.0 - - - - - - -
25/02:30pm 13.8 WSW 13 17 1012.1 - 0.0 - - - - - - -
25/02:00pm 13.9 WSW 11 15 1012.1 - 0.0 - - - - - - -
25/01:30pm 14.0 WSW 12 15 1012.2 - 0.0 - - - - - - -
25/01:00pm 13.7 WSW 13 17 1012.5 - 0.0 - - - - - - -
25/12:30pm 13.8 WSW 13 17 1012.5 - 0.0 - - - - - - -
25/12:00pm 13.5 WSW 15 21 1012.7 - 0.0 - - - - - - -
25/11:30am 13.3 WSW 17 21 1012.6 - 0.0 - - - - - - -
25/11:00am 13.7 WSW 13 19 1012.4 - 0.0 - - - - - - -
25/10:30am 13.4 W 11 18 1012.4 - 0.0 - - - - - - -
25/10:00am 12.4 WNW 8 14 1012.4 - 0.0 - - - - - - -
25/09:30am 11.5 WSW 16 21 1012.2 - 0.0 - - - - - - -
25/09:00am 10.7 NW 7 11 1012.0 - 2.8 - - - - - - -
25/08:30am 11.0 NW 7 12 1011.6 - 2.8 - - - - - - -
25/08:00am 8.4 NW 6 10 1011.2 - 2.8 - - - - - - -
25/07:30am 7.7 NW 6 10 1010.8 - 2.8 - - - - - - -
25/07:00am 6.8 NW 6 9 1010.4 - 2.8 - - - - - - -
25/06:30am 7.1 NW 8 11 1010.0 - 2.8 - - - - - - -
25/06:00am 6.8 NW 6 11 1009.6 - 2.8 - - - - - - -
25/05:30am 7.1 NW 7 11 1009.6 - 2.8 - - - - - - -
25/05:00am 6.8 NW 5 9 1009.1 - 2.8 - - - - - - -
25/04:30am 7.1 NNW 8 11 1008.7 - 2.8 - - - - - - -
25/04:00am 7.3 NW 7 11 1008.4 - 2.6 - - - - - - -
25/03:30am 7.9 NW 6 9 1008.2 - 2.6 - - - - - - -
25/03:00am 9.0 WNW 7 11 1008.2 - 2.4 Recent precip. - - - - - -
25/02:30am 9.0 W 10 17 1008.1 - 2.4 - - - - - - -
25/02:24am 9.3 W 15 26 1008.1 - 2.4 - - - - - - -
25/02:15am 8.9 WNW 10 24 1008.2 - 2.4 - - - - - - -
25/02:00am 8.7 NW 6 11 1008.1 - 2.2 - - - - - - -
25/01:30am 9.8 W 10 15 1008.0 - 2.2 - - - - - - -
25/01:00am 10.3 WNW 7 13 1007.8 - 2.2 - - - - - - -
25/12:30am 10.6 W 14 21 1007.6 - 2.2 - - - - - - -
25/12:02am 11.1 W 15 27 1007.5 - 2.2 - - - - - - -
25/12:00am 11.6 W 13 27 1007.5 - 2.2 - - - - - - -
 
Date/Time
EST
Temp
°C
Wind Pressure Rain since
9am
mm
Weather Cloud Vis
km
Sea
Height
m
Swell
Dir  Spd
kts
Gust
kts
hPa Trend Height
m
Period
s
Dir
24/11:30pm 10.5 W 9 15 1007.4 - 2.2 - - - - - - -
24/11:00pm 11.2 W 13 18 1007.3 - 2.2 - - - - - - -
24/10:30pm 11.5 W 14 19 1007.2 - 2.2 - - - - - - -
24/10:00pm 11.8 WSW 12 18 1007.1 - 2.2 - - - - - - -
24/09:30pm 12.1 WSW 14 20 1006.8 - 2.2 - - - - - - -
24/09:00pm 12.3 WSW 15 18 1006.7 - 2.2 - - - - - - -
24/08:30pm 12.1 WSW 17 23 1006.1 - 2.2 - - - - - - -
24/08:00pm 12.3 WSW 16 21 1005.7 - 2.2 - - - - - - -
24/07:30pm 12.1 WSW 16 21 1005.3 - 2.2 - - - - - - -
24/07:00pm 12.2 WSW 19 25 1004.6 - 2.2 - - - - - - -
24/06:52pm 12.4 WSW 17 25 1004.4 - 2.0 - - - - - - -
24/06:30pm 13.1 NNW 8 14 1003.7 - 1.2 - - - - - - -
24/06:00pm 13.5 NNW 10 14 1003.1 - 0.4 Rain - - - - - -
24/05:30pm 13.9 N 9 18 1002.9 - 0.2 - - - - - - -
24/05:00pm 14.9 NNW 12 21 1002.7 - 0.0 - - - - - - -
24/04:30pm 15.6 N 11 18 1002.4 - 0.0 - - - - - - -
24/04:00pm 15.1 NNW 8 14 1002.7 - 0.0 - - - - - - -
24/03:30pm 16.2 NW 7 11 1002.6 - 0.0 - - - - - - -
24/03:00pm 16.7 NNW 7 10 1002.7 - 0.0 - - - - - - -
24/02:30pm 16.4 N 10 18 1002.9 - 0.0 - - - - - - -
24/02:00pm 17.4 N 9 13 1002.9 - 0.0 - - - - - - -
24/01:30pm 17.1 NNW 10 15 1003.3 - 0.0 - - - - - - -
24/01:00pm 17.0 N 11 17 1003.6 - 0.0 - - - - - - -
24/12:30pm 16.8 N 10 14 1003.7 - 0.0 - - - - - - -
24/12:00pm 16.6 N 12 19 1003.9 - 0.0 - - - - - - -
24/11:30am 16.5 N 11 22 1004.0 - 0.0 - - - - - - -
24/11:00am 16.4 N 12 19 1004.4 - 0.0 - - - - - - -
24/10:30am 16.9 N 13 21 1004.7 - 0.0 - - - - - - -
24/10:00am 16.4 N 12 20 1004.8 - 0.0 - - - - - - -
24/09:30am 14.4 NNE 9 13 1005.3 - 0.0 - - - - - - -
24/09:00am 12.2 NNE 9 14 1005.4 - 0.0 - - - - - - -
24/08:30am 11.0 NNE 7 10 1005.7 - 0.0 - - - - - - -

Other Formats:

Comma delimited format used in spreadsheet applications
http://www.bom.gov.au/fwo/IDV60701/IDV60701.94830.axf

JavaScript Object Notation format (JSON) in row-major order
http://www.bom.gov.au/fwo/IDV60701/IDV60701.94830.json